Time;durP1;ratioP1;P1;durP2;ratioP2;P2;SDS_P1;SDS_P2;PMS_P1;PMS_P2;Temp;Humidity;BMP_temperature;BMP_pressure;BME280_temperature;BME280_humidity;BME280_pressure;Samples;Min_cycle;Max_cycle;Signal;HPM_P1;HPM_P2
2022/09/20 00:00:43;;;;;;;8.27;1.42;;;10.00;54.50;;;;;;5091201;28;20646;-48
2022/09/20 00:03:10;;;;;;;14.18;1.50;;;11.00;56.90;;;;;;5092631;28;20036;-48
2022/09/20 00:05:38;;;;;;;9.98;1.88;;;9.90;55.90;;;;;;5091115;28;20036;-51
2022/09/20 00:08:06;;;;;;;9.02;1.20;;;10.30;53.60;;;;;;5091085;28;20046;-49
2022/09/20 00:10:38;;;;;;;12.10;1.38;;;9.10;54.40;;;;;;5091857;28;20046;-49
2022/09/20 00:13:05;;;;;;;12.05;1.45;;;9.20;56.90;;;;;;5091598;28;20047;-50
2022/09/20 00:15:31;;;;;;;13.32;1.38;;;9.10;57.50;;;;;;5090837;28;20717;-51
2022/09/20 00:17:57;;;;;;;12.02;1.50;;;9.20;59.20;;;;;;5092069;28;20435;-48
2022/09/20 00:20:23;;;;;;;8.70;1.33;;;9.10;64.10;;;;;;5090650;28;20048;-49
2022/09/20 00:22:49;;;;;;;7.03;1.80;;;9.00;67.00;;;;;;5091301;28;20071;-50
2022/09/20 00:25:16;;;;;;;7.13;1.30;;;9.00;66.10;;;;;;5092198;28;20217;-50
2022/09/20 00:27:42;;;;;;;9.30;1.30;;;10.80;69.30;;;;;;5095109;27;20396;-49
2022/09/20 00:30:08;;;;;;;14.30;1.88;;;9.00;69.60;;;;;;5096271;27;20043;-50
2022/09/20 00:32:34;;;;;;;8.73;1.20;;;8.90;71.20;;;;;;5094811;27;20083;-49
2022/09/20 00:35:12;;;;;;;9.95;1.48;;;11.00;76.10;;;;;;5095069;28;20148;-49
2022/09/20 00:37:40;;;;;;;12.68;1.65;;;9.30;72.00;;;;;;5095026;27;20068;-51
2022/09/20 00:40:14;;;;;;;10.43;1.48;;;8.70;81.80;;;;;;5094750;28;20039;-48
2022/09/20 00:42:40;;;;;;;6.95;1.88;;;8.70;80.10;;;;;;5094981;27;21199;-49
2022/09/20 00:45:18;;;;;;;6.75;1.00;;;6.70;80.90;;;;;;5095184;27;20044;-48
2022/09/20 00:47:45;;;;;;;7.50;1.17;;;8.60;85.30;;;;;;5094216;27;20205;-50
2022/09/20 00:50:23;;;;;;;9.15;1.90;;;8.50;81.30;;;;;;5095024;27;20454;-50
2022/09/20 00:53:10;;;;;;;12.43;1.67;;;8.70;80.90;;;;;;5095269;27;20108;-47
2022/09/20 00:55:41;;;;;;;7.13;1.20;;;8.50;79.40;;;;;;5095237;27;20071;-51
2022/09/20 00:58:08;;;;;;;11.48;1.20;;;9.50;83.60;;;;;;5095269;27;20052;-50
2022/09/20 01:00:33;;;;;;;5.75;1.15;;;9.70;85.40;;;;;;5094293;28;20035;-51
2022/09/20 01:03:04;;;;;;;11.60;1.23;;;9.40;85.30;;;;;;5095916;27;20045;-49
2022/09/20 01:05:31;;;;;;;9.27;1.45;;;8.60;82.30;;;;;;5094980;27;20577;-50
2022/09/20 01:07:57;;;;;;;9.82;1.30;;;8.60;84.30;;;;;;5095863;27;20161;-49
2022/09/20 01:10:23;;;;;;;9.02;1.20;;;8.70;82.70;;;;;;5094025;28;20161;-49
2022/09/20 01:12:51;;;;;;;16.20;1.40;;;8.90;79.80;;;;;;5093445;27;20574;-47
2022/09/20 01:15:17;;;;;;;14.57;2.45;;;8.70;78.90;;;;;;5095652;27;20044;-49
2022/09/20 01:17:49;;;;;;;10.73;1.30;;;8.60;78.70;;;;;;5095157;27;20067;-49
2022/09/20 01:20:35;;;;;;;10.65;1.60;;;10.60;86.20;;;;;;5094691;27;20056;-50
2022/09/20 01:23:28;;;;;;;14.25;1.67;;;8.50;85.60;;;;;;5094234;27;20373;-49
2022/09/20 01:25:57;;;;;;;8.73;1.10;;;8.60;81.40;;;;;;5094864;27;20066;-48
2022/09/20 01:28:24;;;;;;;7.57;1.10;;;8.60;79.70;;;;;;5094410;27;20043;-49
2022/09/20 01:30:56;;;;;;;9.60;1.65;;;8.40;87.60;;;;;;5094381;27;20044;-49
2022/09/20 01:33:47;;;;;;;6.95;1.30;;;8.40;83.90;;;;;;5092275;28;20079;-46
2022/09/20 01:36:37;;;;;;;7.18;1.45;;;8.30;81.40;;;;;;5093634;27;20036;-48
2022/09/20 01:39:11;;;;;;;11.57;1.20;;;8.50;79.40;;;;;;5092453;27;20036;-48
2022/09/20 01:41:52;;;;;;;7.40;1.35;;;8.40;83.90;;;;;;5094362;27;20096;-49
2022/09/20 01:44:21;;;;;;;14.15;1.45;;;10.00;91.30;;;;;;5092643;27;20047;-48
2022/09/20 01:46:56;;;;;;;9.27;2.00;;;8.60;92.40;;;;;;5093862;27;20067;-49
2022/09/20 01:49:51;;;;;;;6.78;1.20;;;9.10;94.40;;;;;;5093990;27;20532;-48
2022/09/20 01:52:26;;;;;;;6.90;1.40;;;8.10;91.90;;;;;;5094058;27;21249;-46
2022/09/20 01:55:04;;;;;;;9.05;1.63;;;9.30;92.50;;;;;;5092816;27;20064;-48
2022/09/20 01:58:05;;;;;;;10.73;1.40;;;8.10;93.00;;;;;;5093537;28;20093;-47
2022/09/20 02:01:00;;;;;;;10.68;2.08;;;8.20;93.80;;;;;;5062075;28;20044;-49
2022/09/20 02:03:37;;;;;;;6.43;1.20;;;8.50;95.00;;;;;;5073975;27;21338;-51
2022/09/20 02:06:34;;;;;;;11.57;1.70;;;9.70;96.00;;;;;;5093775;27;20047;-48
2022/09/20 02:09:30;;;;;;;9.13;1.45;;;8.00;94.20;;;;;;5093042;27;20131;-47
2022/09/20 02:12:32;;;;;;;7.68;1.73;;;8.10;93.70;;;;;;5092839;27;20659;-46
2022/09/20 02:15:08;;;;;;;;;;;7.80;97.40;;;;;;5093632;27;20061;-48
2022/09/20 02:17:52;;;;;;;8.88;1.52;;;7.80;99.90;;;;;;5093536;27;20334;-49
2022/09/20 02:20:27;;;;;;;9.75;1.85;;;7.50;99.90;;;;;;5093039;27;20700;-50
2022/09/20 02:23:21;;;;;;;9.23;1.67;;;7.40;99.90;;;;;;5093631;27;20035;-47
2022/09/20 02:26:04;;;;;;;11.05;1.35;;;7.60;99.90;;;;;;5093297;27;20036;-48
2022/09/20 02:28:44;;;;;;;11.82;1.70;;;7.30;99.90;;;;;;5093686;28;20046;-49
2022/09/20 02:31:33;;;;;;;8.02;1.58;;;7.40;99.90;;;;;;5093720;27;20038;-47
2022/09/20 02:34:18;;;;;;;10.18;2.13;;;7.40;99.90;;;;;;5092967;28;20038;-47
2022/09/20 02:37:32;;;;;;;15.15;2.00;;;7.30;99.90;;;;;;5092210;28;20051;-49
2022/09/20 02:40:33;;;;;;;9.73;1.73;;;7.20;99.90;;;;;;5093437;27;20054;-47
2022/09/20 02:43:43;;;;;;;4.78;1.17;;;7.30;99.90;;;;;;5094045;27;20080;-47
2022/09/20 02:46:33;;;;;;;8.38;1.60;;;7.50;99.90;;;;;;5093128;27;20194;-48
2022/09/20 02:49:18;;;;;;;9.75;1.75;;;7.60;99.90;;;;;;5093290;28;20147;-47
2022/09/20 02:51:51;;;;;;;12.65;1.58;;;7.50;99.90;;;;;;5092464;28;20545;-49
2022/09/20 02:54:31;;;;;;;8.00;1.40;;;7.60;99.90;;;;;;5092889;28;20379;-51
2022/09/20 02:57:22;;;;;;;19.38;2.58;;;7.60;99.90;;;;;;5093093;28;20048;-48
2022/09/20 02:59:54;;;;;;;7.60;1.40;;;7.80;99.90;;;;;;5093837;27;20050;-49
2022/09/20 03:02:29;;;;;;;9.27;2.65;;;7.80;99.90;;;;;;5094679;27;20126;-51
2022/09/20 03:05:35;;;;;;;8.32;1.58;;;8.30;99.90;;;;;;5092498;27;20692;-48
2022/09/20 03:08:14;;;;;;;7.10;2.40;;;7.80;99.90;;;;;;5091965;28;20718;-47
2022/09/20 03:10:46;;;;;;;5.53;1.20;;;8.00;99.90;;;;;;5090429;28;20031;-50
2022/09/20 03:13:40;;;;;;;7.85;1.45;;;7.90;99.90;;;;;;5092512;27;20071;-49
2022/09/20 03:16:06;;;;;;;7.97;1.00;;;8.10;99.90;;;;;;5092487;28;20048;-50
2022/09/20 03:19:01;;;;;;;10.88;1.40;;;8.50;99.90;;;;;;5091775;28;20100;-50
2022/09/20 03:21:27;;;;;;;5.97;1.10;;;8.30;99.90;;;;;;5070267;28;20808;-46
2022/09/20 03:24:15;;;;;;;9.32;2.45;;;8.20;99.90;;;;;;5092093;28;20058;-50
2022/09/20 03:26:59;;;;;;;5.22;1.10;;;8.30;99.90;;;;;;5092156;27;20134;-50
2022/09/20 03:29:54;;;;;;;6.40;1.30;;;8.40;99.90;;;;;;5092402;28;20843;-51
2022/09/20 03:32:47;;;;;;;6.10;1.60;;;8.60;99.90;;;;;;5076237;28;20046;-48
2022/09/20 03:35:39;;;;;;;10.07;1.65;;;8.70;99.90;;;;;;5091629;28;20031;-48
2022/09/20 03:38:23;;;;;;;4.83;1.07;;;8.70;99.90;;;;;;5088885;28;20043;-46
2022/09/20 03:41:07;;;;;;;7.25;1.73;;;8.90;99.90;;;;;;5091569;28;20296;-49
2022/09/20 03:43:59;;;;;;;9.63;1.05;;;9.00;99.90;;;;;;5092848;28;20100;-50
2022/09/20 03:46:27;;;;;;;7.28;1.05;;;9.00;99.90;;;;;;5092950;28;20048;-51
2022/09/20 03:49:07;;;;;;;7.32;1.17;;;9.20;99.90;;;;;;5092708;28;20040;-51
2022/09/20 03:51:46;;;;;;;5.55;1.17;;;9.30;99.90;;;;;;5092116;28;20453;-49
2022/09/20 03:54:22;;;;;;;10.40;1.10;;;9.20;99.90;;;;;;5091904;28;20446;-52
2022/09/20 03:57:29;;;;;;;7.72;1.02;;;10.60;99.90;;;;;;5092693;28;20123;-51
2022/09/20 04:00:15;;;;;;;10.85;1.42;;;9.60;99.90;;;;;;5092496;28;20230;-52
2022/09/20 04:03:16;;;;;;;6.97;1.13;;;9.50;99.90;;;;;;5095785;28;20048;-51
2022/09/20 04:06:00;;;;;;;5.28;1.17;;;9.80;99.90;;;;;;5096425;28;20036;-51
2022/09/20 04:08:48;;;;;;;8.07;1.05;;;9.70;99.90;;;;;;5096783;27;20508;-49
2022/09/20 04:11:30;;;;;;;6.25;1.20;;;9.90;99.90;;;;;;5097481;27;20121;-47
2022/09/20 04:14:20;;;;;;;7.43;1.17;;;9.70;99.90;;;;;;5096347;28;20040;-50
2022/09/20 04:17:02;;;;;;;7.28;1.20;;;9.90;99.90;;;;;;5096180;27;20054;-50
2022/09/20 04:19:41;;;;;;;11.50;1.30;;;9.80;99.90;;;;;;5097934;27;20046;-48
2022/09/20 04:22:07;;;;;;;5.60;1.23;;;9.90;99.90;;;;;;5095054;28;20028;-46
2022/09/20 04:25:05;;;;;;;10.43;1.20;;;9.90;99.90;;;;;;5095659;27;20127;-48
2022/09/20 04:27:41;;;;;;;8.20;1.33;;;11.90;99.90;;;;;;5096010;27;20622;-48
2022/09/20 04:30:20;;;;;;;9.75;1.70;;;9.90;99.90;;;;;;5097198;27;20070;-50
2022/09/20 04:33:19;;;;;;;5.65;1.50;;;10.00;99.90;;;;;;5094757;27;20079;-48
2022/09/20 04:36:28;;;;;;;6.88;1.48;;;10.10;99.90;;;;;;5096274;27;20143;-47
2022/09/20 04:39:00;;;;;;;7.38;1.80;;;9.90;99.90;;;;;;5095406;27;20059;-47
2022/09/20 04:41:59;;;;;;;7.30;1.40;;;10.00;99.90;;;;;;5096281;27;20142;-49
2022/09/20 04:44:57;;;;;;;7.18;1.70;;;10.70;99.90;;;;;;5095327;27;20112;-47
2022/09/20 04:47:45;;;;;;;7.22;1.15;;;11.10;99.90;;;;;;5070420;28;20056;-49
2022/09/20 04:50:32;;;;;;;8.52;2.00;;;10.10;99.90;;;;;;5094894;27;20563;-48
2022/09/20 04:53:23;;;;;;;8.27;1.70;;;10.10;99.90;;;;;;5094913;27;20086;-49
2022/09/20 04:56:04;;;;;;;5.30;1.52;;;10.10;99.90;;;;;;5094962;27;20507;-50
2022/09/20 04:58:51;;;;;;;4.80;1.40;;;10.00;99.90;;;;;;5095152;28;20131;-48
2022/09/20 05:01:44;;;;;;;7.40;1.13;;;10.20;99.90;;;;;;5095091;28;20063;-48
2022/09/20 05:04:33;;;;;;;9.38;1.40;;;10.10;99.90;;;;;;5095698;27;20051;-49
2022/09/20 05:07:23;;;;;;;7.97;1.27;;;10.30;99.90;;;;;;5056405;27;20131;-49
2022/09/20 05:10:14;;;;;;;4.55;1.25;;;10.20;99.90;;;;;;5095192;28;20511;-45
2022/09/20 05:13:20;;;;;;;6.18;1.38;;;10.10;99.90;;;;;;5095568;27;20043;-49
2022/09/20 05:16:01;;;;;;;9.23;1.48;;;10.20;99.90;;;;;;5094500;27;20044;-46
2022/09/20 05:18:55;;;;;;;3.80;0.90;;;10.20;99.90;;;;;;5093694;27;20036;-49
2022/09/20 05:21:58;;;;;;;9.90;2.00;;;10.10;99.90;;;;;;5094910;27;20032;-49
2022/09/20 05:24:54;;;;;;;7.28;1.27;;;10.30;99.90;;;;;;5094966;27;20521;-48
2022/09/20 05:27:49;;;;;;;7.60;1.55;;;10.40;99.90;;;;;;5094698;27;20079;-48
2022/09/20 05:30:43;;;;;;;6.30;1.10;;;10.30;99.90;;;;;;5095356;27;20091;-48
2022/09/20 05:33:30;;;;;;;6.55;1.33;;;10.40;99.90;;;;;;5094786;27;20101;-49
2022/09/20 05:36:11;;;;;;;6.57;1.33;;;10.40;99.90;;;;;;5094816;27;20074;-49
2022/09/20 05:38:51;;;;;;;7.43;1.15;;;10.30;99.90;;;;;;5094166;27;20051;-49
2022/09/20 05:41:44;;;;;;;7.75;1.30;;;10.50;99.90;;;;;;5094901;28;20199;-47
2022/09/20 05:44:40;;;;;;;7.65;1.65;;;10.30;99.90;;;;;;5093716;27;20100;-49
2022/09/20 05:47:41;;;;;;;9.02;1.27;;;10.50;99.90;;;;;;5091567;28;20044;-48
2022/09/20 05:50:41;;;;;;;7.30;1.48;;;10.40;99.90;;;;;;5093269;27;20081;-50
2022/09/20 05:53:28;;;;;;;4.82;1.10;;;10.30;99.90;;;;;;5092230;27;20051;-50
2022/09/20 05:56:02;;;;;;;8.88;1.88;;;10.30;99.90;;;;;;5092256;27;20144;-49
2022/09/20 05:58:37;;;;;;;8.05;1.50;;;10.30;99.90;;;;;;5093053;27;20058;-50
2022/09/20 06:01:09;;;;;;;8.27;1.80;;;10.30;99.90;;;;;;5092417;27;20071;-48
2022/09/20 06:03:47;;;;;;;7.68;1.60;;;10.10;99.90;;;;;;5093056;27;20032;-49
2022/09/20 06:06:16;;;;;;;8.38;1.83;;;10.40;99.90;;;;;;5092025;27;20067;-47
2022/09/20 06:08:59;;;;;;;11.35;1.48;;;10.40;99.90;;;;;;5093218;27;20357;-50
2022/09/20 06:11:39;;;;;;;8.98;1.70;;;10.20;99.90;;;;;;5091614;27;20063;-48
2022/09/20 06:14:30;;;;;;;5.60;1.20;;;10.70;99.90;;;;;;5093049;27;20109;-51
2022/09/20 06:17:12;;;;;;;12.95;2.25;;;11.00;99.90;;;;;;5090920;28;20061;-49
2022/09/20 06:19:57;;;;;;;8.73;1.33;;;11.80;99.90;;;;;;5091799;27;21235;-50
2022/09/20 06:22:29;;;;;;;11.48;1.58;;;11.90;97.40;;;;;;5091372;28;20070;-49
2022/09/20 06:25:07;;;;;;;7.72;1.38;;;11.80;94.60;;;;;;5090828;27;20050;-49
2022/09/20 06:27:48;;;;;;;9.38;1.60;;;11.90;94.60;;;;;;5090700;27;20130;-52
2022/09/20 06:30:25;;;;;;;7.30;1.63;;;12.20;93.80;;;;;;5090480;27;20048;-50
2022/09/20 06:32:59;;;;;;;7.10;1.48;;;12.20;92.60;;;;;;5091924;27;20045;-51
2022/09/20 06:35:56;;;;;;;6.68;1.40;;;12.50;91.80;;;;;;5092122;28;20543;-50
2022/09/20 06:41:27;;;;;;;6.55;1.20;;;13.40;88.70;;;;;;5091223;28;20122;-50
2022/09/20 06:44:03;;;;;;;9.68;1.55;;;13.30;62.80;;;;;;5092910;27;20075;-48
2022/09/20 06:46:34;;;;;;;7.55;1.45;;;13.20;53.70;;;;;;5091959;27;20055;-49
2022/09/20 06:49:01;;;;;;;8.50;1.30;;;12.80;56.40;;;;;;5092031;28;20054;-50
2022/09/20 06:51:32;;;;;;;9.10;1.40;;;10.40;63.10;;;;;;5091264;28;20040;-50
2022/09/20 06:53:59;;;;;;;6.80;1.13;;;12.80;61.50;;;;;;5092321;27;20139;-51
2022/09/20 06:56:28;;;;;;;11.10;1.35;;;12.50;68.00;;;;;;5090480;28;20054;-50
2022/09/20 06:58:54;;;;;;;8.93;1.58;;;12.20;78.60;;;;;;5090642;28;20575;-49
2022/09/20 07:01:20;;;;;;;7.13;1.50;;;12.10;83.10;;;;;;5091532;28;20043;-50
2022/09/20 07:03:46;;;;;;;10.20;1.67;;;14.10;91.40;;;;;;5091464;28;20037;-48
2022/09/20 07:06:15;;;;;;;7.38;1.30;;;11.90;92.40;;;;;;5089977;28;20043;-50
2022/09/20 07:08:42;;;;;;;32.38;3.03;;;11.60;93.50;;;;;;5090500;28;20404;-49
2022/09/20 07:11:15;;;;;;;9.50;1.60;;;11.70;96.30;;;;;;5090870;28;20059;-46
2022/09/20 07:13:44;;;;;;;11.18;2.20;;;11.60;95.80;;;;;;5090731;28;20047;-51
2022/09/20 07:16:13;;;;;;;9.40;1.85;;;11.90;97.60;;;;;;5090276;28;20458;-48
2022/09/20 07:18:40;;;;;;;7.40;1.60;;;12.20;98.20;;;;;;5090437;28;20101;-50
2022/09/20 07:21:07;;;;;;;7.68;2.08;;;11.50;98.40;;;;;;5091019;28;20115;-46
2022/09/20 07:23:33;;;;;;;8.98;1.77;;;11.90;97.70;;;;;;5091406;27;20228;-51
2022/09/20 07:25:59;;;;;;;11.35;1.48;;;11.40;97.90;;;;;;5089346;28;20038;-50
2022/09/20 07:28:30;;;;;;;12.50;1.48;;;11.60;98.40;;;;;;5089671;28;20051;-49
2022/09/20 07:30:56;;;;;;;9.07;1.90;;;12.10;98.10;;;;;;5089493;28;20050;-50
2022/09/20 07:33:23;;;;;;;13.02;1.77;;;11.60;98.40;;;;;;5090689;28;20043;-50
2022/09/20 07:35:52;;;;;;;11.93;1.58;;;11.80;98.20;;;;;;5089099;28;20044;-49
2022/09/20 07:38:18;;;;;;;8.98;1.20;;;12.40;98.70;;;;;;5089715;28;20039;-49
2022/09/20 07:40:45;;;;;;;10.02;1.80;;;12.60;93.10;;;;;;5089822;28;20084;-50
2022/09/20 07:43:11;;;;;;;12.15;1.95;;;13.00;90.80;;;;;;5090234;28;20201;-51
2022/09/20 07:45:38;;;;;;;10.35;1.48;;;13.80;71.80;;;;;;5090118;28;20054;-51
2022/09/20 07:48:07;;;;;;;12.98;1.80;;;14.60;48.60;;;;;;5091061;28;20048;-47
2022/09/20 07:50:33;;;;;;;7.22;1.50;;;15.50;14.20;;;;;;5090166;28;20032;-50
2022/09/20 07:52:59;;;;;;;8.60;1.13;;;15.90;1.00;;;;;;5089745;28;20040;-49
2022/09/20 07:55:25;;;;;;;7.63;1.10;;;15.80;3.20;;;;;;5047336;28;1248102;-50
2022/09/20 07:57:53;;;;;;;7.22;0.90;;;15.80;92.20;;;;;;5089639;28;20089;-47
2022/09/20 08:00:18;;;;;;;7.55;1.20;;;16.00;99.20;;;;;;5090536;28;20039;-51
2022/09/20 08:02:44;;;;;;;8.23;1.20;;;16.20;99.90;;;;;;5092034;28;20044;-47
2022/09/20 08:05:10;;;;;;;7.85;1.20;;;15.80;99.90;;;;;;5091012;28;20048;-51
2022/09/20 08:07:37;;;;;;;6.70;0.93;;;15.60;99.90;;;;;;5090851;28;20539;-51
2022/09/20 08:10:03;;;;;;;6.53;0.93;;;15.60;99.90;;;;;;5091011;28;20051;-51
2022/09/20 08:12:31;;;;;;;8.43;1.35;;;15.60;99.90;;;;;;5091552;28;20362;-48
2022/09/20 08:14:57;;;;;;;7.18;1.25;;;15.30;99.90;;;;;;5091667;27;20043;-51
2022/09/20 08:17:23;;;;;;;8.95;1.10;;;15.00;99.90;;;;;;5090175;28;20044;-49
2022/09/20 08:19:49;;;;;;;9.60;1.30;;;15.00;99.90;;;;;;5090601;28;20172;-52
2022/09/20 08:22:15;;;;;;;6.35;1.40;;;15.10;99.90;;;;;;5091472;28;20044;-49
2022/09/20 08:24:41;;;;;;;6.55;1.05;;;14.80;99.90;;;;;;5089877;28;20119;-47
2022/09/20 08:27:07;;;;;;;8.65;1.30;;;15.10;99.90;;;;;;5089782;28;20039;-50
2022/09/20 08:29:33;;;;;;;6.78;1.33;;;14.80;99.90;;;;;;5089556;28;20058;-50
2022/09/20 08:32:00;;;;;;;9.00;1.27;;;12.70;99.90;;;;;;5091818;28;20047;-49
2022/09/20 08:34:26;;;;;;;8.52;0.98;;;14.90;99.90;;;;;;5089871;28;20523;-49
2022/09/20 08:36:55;;;;;;;9.13;1.10;;;14.70;92.20;;;;;;5090379;28;20043;-48
2022/09/20 08:39:21;;;;;;;6.35;1.10;;;14.80;99.90;;;;;;5089791;28;20263;-51
2022/09/20 08:41:53;;;;;;;6.18;1.20;;;14.80;99.70;;;;;;5089787;28;20055;-51
2022/09/20 08:44:32;;;;;;;6.78;1.25;;;14.90;98.40;;;;;;5089925;28;20039;-49
2022/09/20 08:47:16;;;;;;;5.18;1.10;;;14.90;99.40;;;;;;5091286;27;20055;-48
2022/09/20 08:49:42;;;;;;;7.90;1.65;;;15.00;99.90;;;;;;5089268;27;20051;-49
2022/09/20 08:52:19;;;;;;;6.88;0.98;;;15.20;99.90;;;;;;5092711;28;20035;-51
2022/09/20 08:54:45;;;;;;;8.20;1.30;;;15.10;99.90;;;;;;5092593;27;20201;-49
2022/09/20 08:57:16;;;;;;;8.15;0.93;;;15.20;99.90;;;;;;5091897;27;20116;-50
2022/09/20 08:59:43;;;;;;;8.67;1.10;;;15.00;99.90;;;;;;5094436;27;20039;-51
2022/09/20 09:02:16;;;;;;;7.95;1.00;;;15.20;99.90;;;;;;5094301;27;20282;-51
2022/09/20 09:04:43;;;;;;;5.18;1.00;;;14.70;99.90;;;;;;5093782;27;20043;-49
2022/09/20 09:07:12;;;;;;;7.38;1.05;;;15.30;99.90;;;;;;5093551;27;20053;-49
2022/09/20 09:09:42;;;;;;;8.65;1.27;;;15.00;99.90;;;;;;5092597;27;20598;-53
2022/09/20 09:12:21;;;;;;;11.43;1.45;;;14.70;99.90;;;;;;5092348;27;20051;-51
2022/09/20 09:14:56;;;;;;;10.80;1.50;;;14.50;99.90;;;;;;5094226;27;20399;-45
2022/09/20 09:17:29;;;;;;;4.07;0.98;;;14.20;1.00;;;;;;5094058;27;20031;-49
2022/09/20 09:20:13;;;;;;;5.55;0.98;;;13.90;5.90;;;;;;5093513;27;20447;-48
2022/09/20 09:22:44;;;;;;;5.90;1.35;;;15.10;15.10;;;;;;5091458;27;20054;-51
2022/09/20 09:25:16;;;;;;;7.45;1.00;;;13.50;28.10;;;;;;5091144;27;20050;-48
2022/09/20 09:27:54;;;;;;;5.63;0.95;;;13.40;38.80;;;;;;5094535;27;20112;-48
2022/09/20 09:30:45;;;;;;;5.68;1.20;;;13.20;41.50;;;;;;5093570;27;20042;-50
2022/09/20 09:33:29;;;;;;;4.77;1.07;;;13.20;66.60;;;;;;5094242;27;20641;-49
2022/09/20 09:36:02;;;;;;;8.05;1.08;;;13.40;71.90;;;;;;5092895;27;20088;-49
2022/09/20 09:38:31;;;;;;;6.78;1.30;;;13.40;77.60;;;;;;5093158;27;20088;-49
2022/09/20 09:40:59;;;;;;;16.02;3.85;;;15.50;76.70;;;;;;5093760;27;20058;-48
2022/09/20 09:43:32;;;;;;;13.80;2.38;;;13.60;74.00;;;;;;5091875;27;20079;-47
2022/09/20 09:46:20;;;;;;;8.25;1.65;;;13.70;85.70;;;;;;5091275;28;20047;-50
2022/09/20 09:48:48;;;;;;;4.78;1.05;;;13.90;81.40;;;;;;5091307;27;20051;-50
2022/09/20 09:51:22;;;;;;;10.82;1.20;;;13.90;76.80;;;;;;5092477;27;20054;-49
2022/09/20 09:53:48;;;;;;;8.88;1.60;;;14.10;78.70;;;;;;5091228;27;20051;-49
2022/09/20 09:56:46;;;;;;;6.85;0.93;;;14.10;71.20;;;;;;5091933;27;20329;-48
2022/09/20 09:59:56;;;;;;;7.00;0.90;;;14.50;66.50;;;;;;5089124;27;20070;-47
2022/09/20 10:02:50;;;;;;;6.88;1.08;;;14.40;45.60;;;;;;5065415;27;20387;-49
2022/09/20 10:05:34;;;;;;;7.60;1.30;;;14.50;55.40;;;;;;5090718;27;20076;-50
2022/09/20 10:08:25;;;;;;;8.05;1.48;;;14.70;34.70;;;;;;5092007;27;20088;-50
2022/09/20 10:11:12;;;;;;;8.90;1.08;;;14.70;4.00;;;;;;5092082;28;20698;-49
2022/09/20 10:14:25;;;;;;;5.00;0.88;;;15.00;4.00;;;;;;5090477;27;20051;-47
2022/09/20 10:17:12;;;;;;;6.65;1.10;;;14.80;1.00;;;;;;5086327;28;20366;-47
2022/09/20 10:20:15;;;;;;;4.20;0.80;;;14.80;1.00;;;;;;5090002;27;20075;-49
2022/09/20 10:22:58;;;;;;;5.40;0.98;;;15.30;1.00;;;;;;5090808;27;20040;-50
2022/09/20 10:25:42;;;;;;;;;;;17.80;1.00;;;;;;5092071;27;20088;-47
2022/09/20 10:28:32;;;;;;;5.45;1.00;;;15.80;54.20;;;;;;5091262;27;20683;-50
2022/09/20 10:31:27;;;;;;;10.00;1.08;;;16.30;99.90;;;;;;5091500;27;20043;-49
2022/09/20 10:34:23;;;;;;;6.15;1.00;;;16.60;99.90;;;;;;5092897;28;20097;-50
2022/09/20 10:36:57;;;;;;;4.07;0.80;;;16.60;99.90;;;;;;5091279;27;20100;-49
2022/09/20 10:39:33;;;;;;;7.38;1.05;;;16.60;99.90;;;;;;5090632;27;20113;-49
2022/09/20 10:45:37;;;;;;;6.85;1.52;;;16.80;99.90;;;;;;5092150;28;20081;-49
2022/09/20 10:48:08;;;;;;;8.50;0.73;;;16.90;99.90;;;;;;5092131;28;20059;-46
2022/09/20 10:50:37;;;;;;;7.70;0.85;;;17.00;99.90;;;;;;5092456;27;20065;-47
2022/09/20 10:53:08;;;;;;;6.22;0.90;;;16.70;99.90;;;;;;5092550;28;20051;-49
2022/09/20 10:55:46;;;;;;;10.10;1.13;;;16.80;99.90;;;;;;5091856;27;20051;-48
2022/09/20 10:58:33;;;;;;;8.23;0.90;;;16.80;99.90;;;;;;5089480;28;22141;-49
2022/09/20 11:01:22;;;;;;;4.13;0.70;;;17.40;99.90;;;;;;5091654;28;20051;-48
2022/09/20 11:04:16;;;;;;;3.38;0.55;;;17.80;99.90;;;;;;5092483;27;20047;-46
2022/09/20 11:06:58;;;;;;;6.47;0.95;;;17.80;99.90;;;;;;5089997;27;20669;-49
2022/09/20 11:09:37;;;;;;;11.27;1.52;;;17.40;99.90;;;;;;5091506;27;20043;-49
2022/09/20 11:12:11;;;;;;;8.48;0.95;;;17.00;99.90;;;;;;5091596;27;20048;-49
2022/09/20 11:14:48;;;;;;;10.55;1.20;;;16.60;99.90;;;;;;5090771;27;20055;-49
2022/09/20 11:17:22;;;;;;;6.70;0.90;;;16.30;99.90;;;;;;5091186;27;20043;-49
2022/09/20 11:19:59;;;;;;;6.70;1.63;;;16.10;99.90;;;;;;5091536;28;20047;-49
2022/09/20 11:22:45;;;;;;;7.88;0.98;;;15.90;99.90;;;;;;5090895;27;20412;-50
2022/09/20 11:25:23;;;;;;;12.20;1.10;;;15.70;99.90;;;;;;5091389;28;20042;-50
2022/09/20 11:28:10;;;;;;;10.80;1.20;;;15.40;99.90;;;;;;5090658;28;20042;-48
2022/09/20 11:30:53;;;;;;;4.80;1.00;;;15.30;99.90;;;;;;5089518;28;20047;-50
2022/09/20 11:33:36;;;;;;;5.22;1.02;;;15.20;99.90;;;;;;5091958;28;20452;-51
2022/09/20 11:36:07;;;;;;;7.82;1.00;;;15.50;99.90;;;;;;5089884;28;20047;-48
2022/09/20 11:38:47;;;;;;;4.30;0.75;;;16.00;99.90;;;;;;5090363;28;20665;-48
2022/09/20 11:41:16;;;;;;;7.10;1.15;;;16.20;99.90;;;;;;5090390;28;20435;-50
2022/09/20 11:43:43;;;;;;;9.73;1.70;;;16.60;99.90;;;;;;5090908;28;20046;-49
2022/09/20 11:46:14;;;;;;;4.22;0.80;;;16.30;99.90;;;;;;5089156;28;20051;-49
2022/09/20 11:48:51;;;;;;;4.93;0.80;;;16.50;99.90;;;;;;5088994;28;20031;-49
2022/09/20 11:51:51;;;;;;;4.70;0.90;;;16.50;99.90;;;;;;5090829;28;20036;-50
2022/09/20 11:54:27;;;;;;;4.00;0.75;;;16.00;99.90;;;;;;5088700;28;20598;-48
2022/09/20 11:56:55;;;;;;;6.00;1.05;;;16.00;99.90;;;;;;5090973;28;20349;-49
2022/09/20 11:59:49;;;;;;;4.22;0.50;;;16.40;99.90;;;;;;5089145;28;20048;-48
2022/09/20 12:02:37;;;;;;;4.13;0.60;;;16.90;99.90;;;;;;5090212;28;20048;-47
2022/09/20 12:05:21;;;;;;;6.95;0.95;;;17.30;99.90;;;;;;5090406;28;20038;-49
2022/09/20 12:07:52;;;;;;;5.28;1.23;;;17.50;99.90;;;;;;5090019;28;21124;-51
2022/09/20 12:10:26;;;;;;;6.03;0.80;;;17.30;99.90;;;;;;5090080;28;20108;-47
2022/09/20 12:13:26;;;;;;;5.97;0.82;;;17.00;99.90;;;;;;5090421;28;20051;-52
2022/09/20 12:16:05;;;;;;;5.50;0.70;;;16.70;99.90;;;;;;5081296;28;20055;-51
2022/09/20 12:18:44;;;;;;;5.72;0.98;;;16.10;99.90;;;;;;5090472;28;20043;-50
2022/09/20 12:21:16;;;;;;;6.40;0.70;;;16.00;99.90;;;;;;5090154;28;20035;-52
2022/09/20 12:23:51;;;;;;;4.97;0.82;;;16.00;99.90;;;;;;5095439;27;20418;-51
2022/09/20 12:26:20;;;;;;;3.80;0.70;;;15.90;99.90;;;;;;5093689;27;20116;-51
2022/09/20 12:28:49;;;;;;;7.57;1.33;;;16.50;99.90;;;;;;5095721;27;20042;-51
2022/09/20 12:31:17;;;;;;;5.60;0.57;;;17.20;99.90;;;;;;5095411;27;20206;-50
2022/09/20 12:34:01;;;;;;;3.00;0.68;;;16.60;99.90;;;;;;5096423;27;20051;-52
2022/09/20 12:36:29;;;;;;;4.57;0.80;;;16.50;99.90;;;;;;5089674;27;20035;-50
2022/09/20 12:39:10;;;;;;;5.20;0.80;;;16.20;99.90;;;;;;5094135;27;20305;-51
2022/09/20 12:41:53;;;;;;;6.18;0.65;;;16.10;99.90;;;;;;5092775;27;20457;-45
2022/09/20 12:44:37;;;;;;;;;;;16.20;99.90;;;;;;5094365;27;20043;-46
2022/09/20 12:47:16;;;;;;;7.90;0.90;;;15.90;99.90;;;;;;5093746;28;19930;-48
2022/09/20 12:52:52;;;;;;;4.25;0.90;;;15.60;99.90;;;;;;5092952;27;20496;-49
2022/09/20 12:56:02;;;;;;;3.38;0.82;;;16.50;99.90;;;;;;5094560;27;20051;-48
2022/09/20 12:58:38;;;;;;;6.00;0.88;;;16.20;99.90;;;;;;5093537;27;20044;-47
2022/09/20 13:01:04;;;;;;;5.70;0.93;;;16.10;99.90;;;;;;5093429;27;20043;-49
2022/09/20 13:03:39;;;;;;;5.60;0.80;;;15.70;99.90;;;;;;5094195;27;20495;-50
2022/09/20 13:06:11;;;;;;;4.65;0.70;;;15.50;99.90;;;;;;5092446;27;20134;-48
2022/09/20 13:08:59;;;;;;;8.43;1.25;;;15.40;99.90;;;;;;5093238;27;20336;-48
2022/09/20 13:12:00;;;;;;;10.05;1.52;;;15.10;99.90;;;;;;5094551;27;20135;-49
2022/09/20 13:14:31;;;;;;;7.72;0.88;;;15.10;99.90;;;;;;5092666;27;20096;-48
2022/09/20 13:17:12;;;;;;;4.90;0.70;;;15.30;99.90;;;;;;5092751;27;20108;-49
2022/09/20 13:19:49;;;;;;;2.60;0.63;;;15.80;99.90;;;;;;5093525;27;20047;-50
2022/09/20 13:22:40;;;;;;;2.47;0.60;;;16.00;99.90;;;;;;5093455;28;20035;-50
2022/09/20 13:25:13;;;;;;;4.75;0.63;;;18.00;99.90;;;;;;5092737;28;20035;-49
2022/09/20 13:28:06;;;;;;;4.35;1.17;;;16.40;99.90;;;;;;5093830;27;20062;-50
2022/09/20 13:30:32;;;;;;;5.13;0.73;;;16.40;99.90;;;;;;5092969;27;20051;-48
2022/09/20 13:33:21;;;;;;;6.90;1.00;;;16.80;99.90;;;;;;5092730;27;20309;-47
2022/09/20 13:35:53;;;;;;;8.73;1.20;;;16.90;99.90;;;;;;5094830;27;20054;-49
2022/09/20 13:38:23;;;;;;;6.28;1.08;;;16.80;99.90;;;;;;5093974;27;20036;-45
2022/09/20 13:40:51;;;;;;;5.20;1.00;;;16.70;99.90;;;;;;5093663;27;20507;-47
2022/09/20 13:43:22;;;;;;;4.82;0.98;;;16.60;99.90;;;;;;5092657;27;20078;-51
2022/09/20 13:45:52;;;;;;;4.63;0.85;;;16.60;99.90;;;;;;5092405;27;20039;-47
2022/09/20 13:48:18;;;;;;;8.60;1.20;;;16.20;99.90;;;;;;5092473;28;20031;-47
2022/09/20 13:50:44;;;;;;;10.25;1.17;;;16.20;99.90;;;;;;5092910;27;20380;-50
2022/09/20 13:53:15;;;;;;;6.15;1.10;;;16.30;99.90;;;;;;5090522;28;20074;-50
2022/09/20 13:55:45;;;;;;;5.05;0.80;;;16.50;99.90;;;;;;5090157;27;20376;-46